Terminal Aerodrome Forecast
Issued by NWS

Home | Current Version | Previous Version | Text Only | Print | Product List | Glossary On
Versions: 1 2 3 4 5 6 7 8 9 10 11 12 13 14 15 16
000
FTUS42 KMLB 021131
TAFISM
TAF
KISM 021131Z 0212/0312 17007KT P6SM VCSH BKN110
     FM021400 21011KT P6SM VCSH SCT030 BKN120
     FM021600 23015G23KT P6SM VCSH SCT040 BKN080
      TEMPO 0216/0220 3SM TSRA BKN020CB OVC040
     FM022200 23010KT P6SM SCT030 OVC060
     FM030200 19004KT P6SM FEW035 BKN090 OVC200=

USA.gov is the U.S. government's official web portal to all federal, state and local government web resources and services.